Flight Track Log - Related Links

Times and Time Zones

All times are in EDT time to prevent confusion due to time zone crossing. See the CRL925 flight status page for this flight to view local times or setup timezone preferences in your user account.

Time Position Orientation Groundspeed Altitude Reporting Facility
EDT Latitude Longitude Course Direction KTS MPH feet Rate Location/Type
Fri 07:55:03 PM 14.6090 -61.0000 39° Northeast 291 335 7,600  Level FlightAware ADS-B
Fri 07:55:33 PM 14.6380 -60.9750 40° Northeast 300 345 8,600 2,100 Climbing FlightAware ADS-B
Fri 07:56:03 PM 14.6700 -60.9470 40° Northeast 305 351 9,700 1,800 Climbing FlightAware ADS-B
Fri 07:56:43 PM 14.7130 -60.9100 40° Northeast 330 380 10,700 1,074 Climbing FlightAware ADS-B
Fri 07:57:38 PM 14.7850 -60.8480 40° Northeast 386 444 11,400 1,380 Climbing FlightAware ADS-B
Fri 07:58:23 PM 14.8500 -60.7910 40° Northeast 399 459 13,000 2,400 Climbing FlightAware ADS-B
Fri 07:59:03 PM 14.9040 -60.7450 39° Northeast 395 455 14,800 2,320 Climbing FlightAware ADS-B
Fri 07:59:38 PM 14.9560 -60.6990 41° Northeast 404 465 15,900 1,976 Climbing FlightAware ADS-B
Fri 08:00:28 PM 15.0260 -60.6380 40° Northeast 408 470 17,600 1,906 Climbing FlightAware ADS-B
Fri 08:01:03 PM 15.0780 -60.5940 39° Northeast 415 478 18,600 1,600 Climbing FlightAware ADS-B
Fri 08:01:43 PM 15.1420 -60.5380 40° Northeast 425 489 19,600 1,600 Climbing FlightAware ADS-B
Fri 08:02:33 PM 15.2130 -60.4760 40° Northeast 430 495 21,000 1,543 Climbing FlightAware ADS-B
Fri 08:03:28 PM 15.3000 -60.4000 40° Northeast 443 510 22,300 1,320 Climbing FlightAware ADS-B
Fri 08:04:13 PM 15.3720 -60.3380 40° Northeast 454 522 23,200 1,200 Climbing FlightAware ADS-B
Fri 08:04:53 PM 15.4270 -60.2900 40° Northeast 459 528 24,000 1,350 Climbing FlightAware ADS-B
Fri 08:05:33 PM 15.5020 -60.2240 40° Northeast 463 533 25,000 1,129 Climbing FlightAware ADS-B
Fri 08:06:18 PM 15.5690 -60.1650 40° Northeast 475 547 25,600 706 Climbing FlightAware ADS-B
Fri 08:06:58 PM 15.6410 -60.1020 40° Northeast 491 565 26,000 776 Climbing FlightAware ADS-B
Fri 08:07:43 PM 15.7180 -60.0340 40° Northeast 498 573 26,700 880 Climbing FlightAware ADS-B
Fri 08:08:13 PM 15.7750 -59.9850 40° Northeast 505 581 27,100 825 Climbing FlightAware ADS-B
Fri 08:09:03 PM 15.8630 -59.9070 40° Northeast 512 589 27,800 947 Climbing FlightAware ADS-B
Fri 08:09:48 PM 15.9390 -59.8400 40° Northeast 512 589 28,600 900 Climbing FlightAware ADS-B
Fri 08:10:23 PM 16.0000 -59.7870 40° Northeast 517 595 29,000 825 Climbing FlightAware ADS-B
Fri 08:11:08 PM 16.0760 -59.7200 40° Northeast 518 596 29,700 1,000 Climbing FlightAware ADS-B
Fri 08:11:53 PM 16.1560 -59.6500 40° Northeast 517 595 30,500 975 Climbing FlightAware ADS-B
Fri 08:12:28 PM 16.2260 -59.5880 40° Northeast 520 598 31,000 918 Climbing FlightAware ADS-B
Fri 08:13:18 PM 16.3160 -59.5070 41° Northeast 519 597 31,800 1,000 Climbing FlightAware ADS-B
Fri 08:13:58 PM 16.3830 -59.4480 40° Northeast 517 595 32,500 1,059 Climbing FlightAware ADS-B
Fri 08:14:43 PM 16.4730 -59.3680 40° Northeast 514 592 33,300 988 Climbing FlightAware ADS-B
Fri 08:15:23 PM 16.5410 -59.3090 40° Northeast 512 589 33,900 900 Climbing FlightAware ADS-B
Fri 08:16:03 PM 16.6070 -59.2500 41° Northeast 512 589 34,500 880 Climbing FlightAware ADS-B
Fri 08:16:38 PM 16.6730 -59.1920 40° Northeast 511 588 35,000 353 Climbing FlightAware ADS-B
Fri 08:17:28 PM 16.7600 -59.1130 41° Northeast 514 592 35,000  Level FlightAware ADS-B
Fri 08:18:08 PM 16.8250 -59.0560 40° Northeast 513 590 35,000  Level FlightAware ADS-B
Fri 08:18:53 PM 16.9140 -58.9770 40° Northeast 512 589 35,000  Level FlightAware ADS-B
Fri 08:19:33 PM 16.9790 -58.9180 41° Northeast 513 590 35,000  Level FlightAware ADS-B
Fri 08:20:43 PM 17.1130 -58.7990 40° Northeast 513 590 35,000  Level FlightAware ADS-B
Fri 08:21:28 PM 17.1750 -58.7440 40° Northeast 514 592 35,000  Level FlightAware ADS-B
Fri 08:22:08 PM 17.2360 -58.6900 40° Northeast 514 592 35,000  Level FlightAware ADS-B
Fri 08:22:48 PM 17.2980 -58.6350 40° Northeast 514 592 35,000  Level FlightAware ADS-B
Fri 08:23:28 PM 17.3600 -58.5810 40° Northeast 514 592 35,000  Level FlightAware ADS-B
Fri 08:24:08 PM 17.4220 -58.5270 40° Northeast 514 592 35,000  Level FlightAware ADS-B
Fri 08:24:58 PM 17.5000 -58.4580 40° Northeast 514 592 35,000  Level FlightAware ADS-B
Fri 08:25:38 PM 17.5620 -58.4040 40° Northeast 514 592 35,000  Level FlightAware ADS-B
Fri 08:26:18 PM 17.6240 -58.3490 40° Northeast 514 592 35,000  Level FlightAware ADS-B
Fri 08:26:58 PM 17.6860 -58.2950 40° Northeast 514 592 35,000  Level FlightAware ADS-B
Fri 08:27:38 PM 17.7470 -58.2400 41° Northeast 514 592 35,000  Level FlightAware ADS-B
Fri 08:28:27 PM 18.0000 -58.0000 24° Northeast 498 573 35,000  Level New York Oceanic (ODAPS)
Fri 08:28:28 PM 17.8250 -58.1720 40° Northeast 514 592 35,000  Level FlightAware ADS-B
Fri 08:29:08 PM 17.8870 -58.1180 40° Northeast 514 592 35,000  Level FlightAware ADS-B
Fri 08:29:17 PM 18.1167 -57.9500 25° Northeast 498 573 35,000  Level New York Oceanic (ODAPS)
Fri 08:29:48 PM 17.9490 -58.0630 40° Northeast 514 592 35,000  Level FlightAware ADS-B
Fri 08:30:28 PM 18.0110 -58.0080 40° Northeast 514 592 35,000  Level FlightAware ADS-B
Fri 08:33:00 PM 18.3321 -57.8494 25° Northeast  Level FlightAware Approximate
Fri 08:33:31 PM 18.6333 -57.7000 25° Northeast 494 568 35,000  Level New York Oceanic (ODAPS)
Fri 08:34:00 PM 18.7527 -57.6376 25° Northeast 498 573 35,000  Level FlightAware Transoceanic
Fri 08:35:00 PM 18.8704 -57.5858 25° Northeast 498 573 35,000  Level FlightAware Transoceanic
Fri 08:36:00 PM 18.9960 -57.5248 25° Northeast 498 573 35,000  Level FlightAware Transoceanic
Fri 08:37:00 PM 19.1215 -57.4637 25° Northeast 498 573 35,000  Level FlightAware Transoceanic
Fri 08:38:00 PM 19.2470 -57.4025 25° Northeast 498 573 35,000  Level FlightAware Transoceanic
Fri 08:39:00 PM 19.3846 -57.3346 25° Northeast 494 568 35,000  Level FlightAware Transoceanic
Fri 08:40:00 PM 19.5098 -57.2734 25° Northeast 494 568 35,000  Level FlightAware Transoceanic
Fri 08:41:00 PM 19.6349 -57.2121 25° Northeast 494 568 35,000  Level FlightAware Transoceanic
Fri 08:42:00 PM 19.7600 -57.1507 25° Northeast 494 568 35,000  Level FlightAware Transoceanic
Fri 08:43:00 PM 19.8851 -57.0892 25° Northeast 494 568 35,000  Level FlightAware Transoceanic
Fri 08:44:00 PM 20.0102 -57.0276 25° Northeast 494 568 35,000  Level FlightAware Transoceanic
Fri 08:44:17 PM 19.7000 -57.1833 25° Northeast 497 572 35,000  Level New York Oceanic (ODAPS)
Fri 08:45:00 PM 20.1352 -56.9659 25° Northeast 494 568 35,000  Level FlightAware Transoceanic
Fri 08:46:00 PM 20.2603 -56.9041 25° Northeast 494 568 35,000  Level FlightAware Transoceanic
Fri 08:47:00 PM 20.3853 -56.8422 25° Northeast 494 568 35,000  Level FlightAware Transoceanic
Fri 08:48:00 PM 20.5102 -56.7802 25° Northeast 494 568 35,000  Level FlightAware Transoceanic
Fri 08:49:00 PM 20.6352 -56.7181 25° Northeast 494 568 35,000 779 Level FlightAware Transoceanic
Fri 08:49:17 PM 19.7000 -57.1833 25° Northeast 497 572 36,000  Climbing New York Oceanic (ODAPS)
Fri 08:50:00 PM 20.7143 -56.6812 25° Northeast 497 572 35,000 -583 Descending FlightAware Transoceanic
Fri 08:51:00 PM 20.8410 -56.6179 25° Northeast 497 572 35,000  Level FlightAware Transoceanic
Fri 08:52:00 PM 20.9676 -56.5546 25° Northeast 497 572 35,000  Level FlightAware Transoceanic
Fri 08:53:00 PM 21.0943 -56.4911 25° Northeast 497 572 35,000 566 Level FlightAware Transoceanic
Fri 08:53:46 PM 21.0667 -56.5000 25° Northeast 475 547 36,000  Climbing New York Oceanic (ODAPS)
Fri 08:54:00 PM 21.2209 -56.4276 25° Northeast 497 572 35,000  Descending FlightAware Transoceanic
Fri 08:55:00 PM 21.3475 -56.3639 25° Northeast 497 572 36,000 500 Climbing FlightAware Transoceanic
Fri 08:56:00 PM 21.4740 -56.3001 25° Northeast 497 572 36,000  Level FlightAware Transoceanic
Fri 08:57:00 PM 21.6006 -56.2362 25° Northeast 497 572 36,000  Level FlightAware Transoceanic
Fri 08:58:00 PM 21.7271 -56.1722 25° Northeast 497 572 36,000  Level FlightAware Transoceanic
Fri 08:59:00 PM 21.8536 -56.1081 25° Northeast 497 572 36,000  Level FlightAware Transoceanic
Fri 09:00:00 PM 21.8013 -56.1309 25° Northeast 475 547 36,000  Level FlightAware Transoceanic
Fri 09:01:00 PM 21.9236 -56.0690 25° Northeast 475 547 36,000  Level FlightAware Transoceanic
Fri 09:02:00 PM 22.0460 -56.0070 25° Northeast 475 547 36,000  Level FlightAware Transoceanic
Fri 09:03:00 PM 22.1683 -55.9449 25° Northeast 475 547 36,000  Level FlightAware Transoceanic
Fri 09:04:00 PM 22.2906 -55.8827 25° Northeast 475 547 36,000  Level FlightAware Transoceanic
Fri 09:05:00 PM 22.4128 -55.8204 25° Northeast 475 547 36,000  Level FlightAware Transoceanic
Fri 09:06:00 PM 22.5351 -55.7580 25° Northeast 475 547 36,000  Level FlightAware Transoceanic
Fri 09:07:00 PM 22.6573 -55.6954 25° Northeast 475 547 36,000  Level FlightAware Transoceanic
Fri 09:08:00 PM 22.7795 -55.6328 25° Northeast 475 547 36,000  Level FlightAware Transoceanic
Fri 09:09:00 PM 22.9016 -55.5700 25° Northeast 475 547 36,000  Level FlightAware Transoceanic
Fri 09:10:00 PM 23.0238 -55.5071 25° Northeast 475 547 36,000  Level FlightAware Transoceanic
Fri 09:11:00 PM 23.1459 -55.4442 25° Northeast 475 547 36,000  Level FlightAware Transoceanic
Fri 09:12:00 PM 23.2680 -55.3811 25° Northeast 475 547 36,000  Level FlightAware Transoceanic
Fri 09:13:00 PM 23.3901 -55.3178 25° Northeast 475 547 36,000  Level FlightAware Transoceanic
Fri 09:14:00 PM 23.5121 -55.2545 25° Northeast 475 547 36,000  Level FlightAware Transoceanic
Fri 09:14:04 PM 23.5500 -55.2333 25° Northeast 497 572 36,000  Level New York Oceanic (ODAPS)
Fri 09:15:00 PM 23.6341 -55.1911 25° Northeast 475 547 36,000  Level FlightAware Transoceanic
Fri 09:16:00 PM 23.7561 -55.1275 26° Northeast 475 547 36,000  Level FlightAware Transoceanic
Fri 09:17:00 PM 23.8781 -55.0638 26° Northeast 475 547 36,000  Level FlightAware Transoceanic
Fri 09:17:30 PM 24.0000 -55.0000 41° Northeast 527 606 36,000  Level New York Oceanic (ODAPS)
Fri 09:18:00 PM 24.0000 -55.0000 41° Northeast 475 547 36,000  Level FlightAware Transoceanic
Fri 09:19:00 PM 24.1081 -54.8980 41° Northeast 475 547 36,000  Level FlightAware Transoceanic
Fri 09:20:00 PM 24.3312 -54.6867 41° Northeast 497 572 36,000  Level FlightAware Transoceanic
Fri 09:21:00 PM 24.4414 -54.5819 41° Northeast 497 572 36,000  Level FlightAware Transoceanic
Fri 09:22:00 PM 24.5516 -54.4769 41° Northeast 497 572 36,000  Level FlightAware Transoceanic
Fri 09:23:00 PM 24.6617 -54.3717 41° Northeast 527 606 36,000  Level FlightAware Transoceanic
Fri 09:24:00 PM 24.7717 -54.2664 41° Northeast 527 606 36,000  Level FlightAware Transoceanic
Fri 09:25:00 PM 24.8817 -54.1608 41° Northeast 527 606 36,000  Level FlightAware Transoceanic
Fri 09:26:00 PM 24.9916 -54.0551 41° Northeast 527 606 36,000  Level FlightAware Transoceanic
Fri 09:27:00 PM 25.1014 -53.9492 41° Northeast 527 606 36,000  Level FlightAware Transoceanic
Fri 09:28:00 PM 25.2111 -53.8431 41° Northeast 527 606 36,000  Level FlightAware Transoceanic
Fri 09:29:00 PM 25.3207 -53.7368 41° Northeast 527 606 36,000  Level FlightAware Transoceanic
Fri 09:30:00 PM 25.4303 -53.6303 41° Northeast 527 606 36,000  Level FlightAware Transoceanic
Fri 09:31:00 PM 25.5398 -53.5236 41° Northeast 527 606 36,000  Level FlightAware Transoceanic
Fri 09:32:00 PM 25.6493 -53.4167 41° Northeast 527 606 36,000  Level FlightAware Transoceanic
Fri 09:33:00 PM 25.7586 -53.3096 41° Northeast 527 606 36,000  Level FlightAware Transoceanic
Fri 09:34:00 PM 25.8679 -53.2023 41° Northeast 527 606 36,000  Level FlightAware Transoceanic
Fri 09:34:20 PM 25.8333 -53.2333 41° Northeast 518 596 36,000  Level New York Oceanic (ODAPS)
Fri 09:35:00 PM 25.9771 -53.0948 42° Northeast 527 606 36,000  Level FlightAware Transoceanic
Fri 09:36:00 PM 26.0861 -52.9872 42° Northeast 527 606 36,000  Level FlightAware Transoceanic
Fri 09:37:00 PM 26.1952 -52.8793 42° Northeast 527 606 36,000  Level FlightAware Transoceanic
Fri 09:38:00 PM 26.3041 -52.7712 42° Northeast 527 606 36,000  Level FlightAware Transoceanic
Fri 09:39:00 PM 26.4130 -52.6629 42° Northeast 527 606 36,000  Level FlightAware Transoceanic
Fri 09:40:00 PM 26.4725 -52.6013 42° Northeast 518 596 36,000  Level FlightAware Transoceanic
Fri 09:41:00 PM 26.5788 -52.4952 42° Northeast 518 596 36,000  Level FlightAware Transoceanic
Fri 09:42:00 PM 26.6850 -52.3890 42° Northeast 518 596 36,000  Level FlightAware Transoceanic
Fri 09:43:00 PM 26.7911 -52.2826 42° Northeast 518 596 36,000  Level FlightAware Transoceanic
Fri 09:44:00 PM 26.8971 -52.1760 42° Northeast 518 596 36,000  Level FlightAware Transoceanic
Fri 09:45:00 PM 27.0030 -52.0691 42° Northeast 518 596 36,000  Level FlightAware Transoceanic
Fri 09:46:00 PM 27.1089 -51.9621 42° Northeast 518 596 36,000  Level FlightAware Transoceanic
Fri 09:47:00 PM 27.2147 -51.8549 42° Northeast 518 596 36,000  Level FlightAware Transoceanic
Fri 09:48:00 PM 27.3204 -51.7475 42° Northeast 518 596 36,000  Level FlightAware Transoceanic
Fri 09:49:00 PM 27.4260 -51.6399 42° Northeast 518 596 36,000  Level FlightAware Transoceanic
Fri 09:50:00 PM 27.5315 -51.5320 42° Northeast 518 596 36,000  Level FlightAware Transoceanic
Fri 09:51:00 PM 27.6370 -51.4240 42° Northeast 518 596 36,000  Level FlightAware Transoceanic
Fri 09:52:00 PM 27.7423 -51.3157 42° Northeast 518 596 36,000  Level FlightAware Transoceanic
Fri 09:53:00 PM 27.8476 -51.2073 42° Northeast 518 596 36,000  Level FlightAware Transoceanic
Fri 09:54:00 PM 27.9528 -51.0986 42° Northeast 518 596 36,000  Level FlightAware Transoceanic
Fri 09:54:35 PM 28.0333 -51.0167 43° Northeast 525 604 36,000  Level New York Oceanic (ODAPS)
Fri 09:55:00 PM 28.0579 -50.9897 42° Northeast 518 596 36,000  Level FlightAware Transoceanic
Fri 09:56:00 PM 28.1630 -50.8806 43° Northeast 518 596 36,000  Level FlightAware Transoceanic
Fri 09:57:00 PM 28.2679 -50.7713 43° Northeast 518 596 36,000  Level FlightAware Transoceanic
Fri 09:58:00 PM 28.3727 -50.6618 43° Northeast 518 596 36,000  Level FlightAware Transoceanic
Fri 09:59:00 PM 28.4775 -50.5520 43° Northeast 518 596 36,000  Level FlightAware Transoceanic
Fri 10:00:00 PM 28.6786 -50.3410 43° Northeast 525 604 36,000  Level FlightAware Transoceanic
Fri 10:01:00 PM 28.7858 -50.2275 43° Northeast 525 604 36,000  Level FlightAware Transoceanic
Fri 10:02:00 PM 28.8930 -50.1139 43° Northeast 525 604 36,000  Level FlightAware Transoceanic
Fri 10:03:00 PM 29.0000 -50.0000 39° Northeast 525 604 36,000  Level FlightAware Transoceanic
Fri 10:03:30 PM 29.0000 -50.0000 39° Northeast 528 608 36,000  Level New York Oceanic (ODAPS)
Fri 10:04:00 PM 29.1131 -49.8945 39° Northeast 525 604 36,000  Level FlightAware Transoceanic
Fri 10:05:00 PM 29.2262 -49.7887 39° Northeast 525 604 36,000  Level FlightAware Transoceanic
Fri 10:06:00 PM 29.3391 -49.6827 39° Northeast 525 604 36,000  Level FlightAware Transoceanic
Fri 10:07:00 PM 29.4520 -49.5765 39° Northeast 525 604 36,000  Level FlightAware Transoceanic
Fri 10:08:00 PM 29.5648 -49.4700 39° Northeast 525 604 36,000  Level FlightAware Transoceanic
Fri 10:09:00 PM 29.6775 -49.3633 39° Northeast 528 608 36,000  Level FlightAware Transoceanic
Fri 10:10:00 PM 29.7901 -49.2563 40° Northeast 528 608 36,000  Level FlightAware Transoceanic
Fri 10:11:00 PM 29.9026 -49.1492 40° Northeast 528 608 36,000  Level FlightAware Transoceanic
Fri 10:12:00 PM 30.0151 -49.0417 40° Northeast 528 608 36,000  Level FlightAware Transoceanic
Fri 10:13:00 PM 30.1274 -48.9341 40° Northeast 528 608 36,000  Level FlightAware Transoceanic
Fri 10:14:00 PM 30.2397 -48.8261 40° Northeast 528 608 36,000  Level FlightAware Transoceanic
Fri 10:14:49 PM 30.3000 -48.7667 40° Northeast 529 609 36,000  Level New York Oceanic (ODAPS)
Fri 10:15:00 PM 30.3519 -48.7180 40° Northeast 528 608 36,000  Level FlightAware Transoceanic
Fri 10:16:00 PM 30.4640 -48.6095 40° Northeast 528 608 36,000  Level FlightAware Transoceanic
Fri 10:17:00 PM 30.5760 -48.5009 40° Northeast 528 608 36,000  Level FlightAware Transoceanic
Fri 10:18:00 PM 30.6879 -48.3920 40° Northeast 528 608 36,000  Level FlightAware Transoceanic
Fri 10:19:00 PM 30.7997 -48.2828 40° Northeast 528 608 36,000  Level FlightAware Transoceanic
Fri 10:20:00 PM 30.9114 -48.1734 40° Northeast 528 608 36,000  Level FlightAware Transoceanic
Fri 10:21:00 PM 30.9808 -48.1041 40° Northeast 529 609 36,000  Level FlightAware Transoceanic
Fri 10:22:00 PM 31.0940 -47.9928 40° Northeast 529 609 36,000  Level FlightAware Transoceanic
Fri 10:23:00 PM 31.2070 -47.8812 40° Northeast 529 609 36,000  Level FlightAware Transoceanic
Fri 10:24:00 PM 31.3200 -47.7693 40° Northeast 529 609 36,000  Level FlightAware Transoceanic
Fri 10:25:00 PM 31.4328 -47.6572 40° Northeast 529 609 36,000  Level FlightAware Transoceanic
Fri 10:26:00 PM 31.5456 -47.5447 40° Northeast 529 609 36,000  Level FlightAware Transoceanic
Fri 10:27:00 PM 31.6582 -47.4321 40° Northeast 529 609 36,000  Level FlightAware Transoceanic
Fri 10:28:00 PM 31.7708 -47.3191 41° Northeast 529 609 36,000  Level FlightAware Transoceanic
Fri 10:29:00 PM 31.8832 -47.2059 41° Northeast 529 609 36,000  Level FlightAware Transoceanic
Fri 10:30:00 PM 31.9956 -47.0924 41° Northeast 529 609 36,000  Level FlightAware Transoceanic
Fri 10:31:00 PM 32.1078 -46.9786 41° Northeast 529 609 36,000  Level FlightAware Transoceanic
Fri 10:32:00 PM 32.2200 -46.8645 41° Northeast 529 609 36,000  Level FlightAware Transoceanic
Fri 10:33:00 PM 32.3321 -46.7502 41° Northeast 529 609 36,000  Level FlightAware Transoceanic
Fri 10:34:00 PM 32.4440 -46.6355 41° Northeast 529 609 36,000  Level FlightAware Transoceanic
Fri 10:35:00 PM 32.5559 -46.5206 41° Northeast 529 609 36,000  Level FlightAware Transoceanic
Fri 10:35:07 PM 32.6000 -46.4667 41° Northeast 533 613 36,000  Level New York Oceanic (ODAPS)
Fri 10:36:00 PM 32.6676 -46.4054 41° Northeast 529 609 36,000  Level FlightAware Transoceanic
Fri 10:37:00 PM 32.7792 -46.2899 41° Northeast 529 609 36,000  Level FlightAware Transoceanic
Fri 10:38:00 PM 32.8907 -46.1741 41° Northeast 529 609 36,000  Level FlightAware Transoceanic
Fri 10:39:00 PM 33.0022 -46.0581 41° Northeast 529 609 36,000  Level FlightAware Transoceanic
Fri 10:40:00 PM 33.1135 -45.9417 41° Northeast 529 609 36,000  Level FlightAware Transoceanic
Fri 10:41:00 PM 33.3022 -45.7392 41° Northeast 533 613 36,000  Level FlightAware Transoceanic
Fri 10:42:00 PM 33.4188 -45.6169 41° Northeast 533 613 36,000  Level FlightAware Transoceanic
Fri 10:43:00 PM 33.5353 -45.4941 41° Northeast 533 613 36,000  Level FlightAware Transoceanic
Fri 10:44:00 PM 33.6516 -45.3711 41° Northeast 533 613 36,000  Level FlightAware Transoceanic
Fri 10:45:00 PM 33.7679 -45.2477 41° Northeast 533 613 36,000  Level FlightAware Transoceanic
Fri 10:46:00 PM 33.8840 -45.1240 42° Northeast 533 613 36,000  Level FlightAware Transoceanic
Fri 10:47:00 PM 34.0000 -45.0000 44° Northeast 533 613 36,000  Level FlightAware Transoceanic
Fri 10:47:25 PM 34.0000 -45.0000 44° Northeast 516 594 36,000  Level New York Oceanic (ODAPS)
Fri 10:48:00 PM 34.1024 -44.8810 44° Northeast 533 613 36,000  Level FlightAware Transoceanic
Fri 10:49:00 PM 34.2048 -44.7617 44° Northeast 533 613 36,000  Level FlightAware Transoceanic
Fri 10:50:00 PM 34.3069 -44.6421 44° Northeast 533 613 36,000  Level FlightAware Transoceanic
Fri 10:51:00 PM 34.4090 -44.5223 44° Northeast 533 613 36,000  Level FlightAware Transoceanic
Fri 10:52:00 PM 34.5110 -44.4021 44° Northeast 533 613 36,000  Level FlightAware Transoceanic
Fri 10:53:00 PM 34.6129 -44.2816 44° Northeast 516 594 36,000  Level FlightAware Transoceanic
Fri 10:54:00 PM 34.7146 -44.1609 44° Northeast 516 594 36,000  Level FlightAware Transoceanic
Fri 10:55:00 PM 34.8162 -44.0398 44° Northeast 516 594 36,000  Level FlightAware Transoceanic
Fri 10:55:22 PM 34.8333 -44.0333 45° Northeast 509 586 36,000  Level New York Oceanic (ODAPS)
Fri 10:56:00 PM 34.9177 -43.9185 44° Northeast 516 594 36,000  Level FlightAware Transoceanic
Fri 10:57:00 PM 35.0191 -43.7968 45° Northeast 516 594 36,000  Level FlightAware Transoceanic
Fri 10:58:00 PM 35.1203 -43.6749 45° Northeast 516 594 36,000  Level FlightAware Transoceanic
Fri 10:59:00 PM 35.2214 -43.5526 45° Northeast 516 594 36,000  Level FlightAware Transoceanic
Fri 11:00:00 PM 35.3224 -43.4301 45° Northeast 516 594 36,000  Level FlightAware Transoceanic
Fri 11:01:00 PM 35.4372 -43.3018 45° Northeast 509 586 36,000  Level FlightAware Transoceanic
Fri 11:02:00 PM 35.5374 -43.1788 45° Northeast 509 586 36,000  Level FlightAware Transoceanic
Fri 11:03:00 PM 35.6375 -43.0555 45° Northeast 509 586 36,000  Level FlightAware Transoceanic
Fri 11:04:00 PM 35.7375 -42.9319 45° Northeast 509 586 36,000  Level FlightAware Transoceanic
Fri 11:05:00 PM 35.8373 -42.8079 45° Northeast 509 586 36,000  Level FlightAware Transoceanic
Fri 11:06:00 PM 35.9370 -42.6837 45° Northeast 509 586 36,000  Level FlightAware Transoceanic
Fri 11:07:00 PM 36.0366 -42.5592 45° Northeast 509 586 36,000  Level FlightAware Transoceanic
Fri 11:08:00 PM 36.1361 -42.4343 45° Northeast 509 586 36,000  Level FlightAware Transoceanic
Fri 11:09:00 PM 36.2354 -42.3091 46° Northeast 509 586 36,000  Level FlightAware Transoceanic
Fri 11:10:00 PM 36.3346 -42.1836 46° Northeast 509 586 36,000  Level FlightAware Transoceanic
Fri 11:11:00 PM 36.4336 -42.0578 46° Northeast 509 586 36,000  Level FlightAware Transoceanic
Fri 11:12:00 PM 36.5326 -41.9317 46° Northeast 509 586 36,000  Level FlightAware Transoceanic
Fri 11:13:00 PM 36.6313 -41.8052 46° Northeast 509 586 36,000  Level FlightAware Transoceanic
Fri 11:14:00 PM 36.7300 -41.6784 46° Northeast 509 586 36,000  Level FlightAware Transoceanic
Fri 11:15:00 PM 36.8285 -41.5513 46° Northeast 509 586 36,000  Level FlightAware Transoceanic
Fri 11:15:37 PM 36.8667 -41.5000 46° Northeast 498 573 36,000  Level New York Oceanic (ODAPS)
Fri 11:16:00 PM 36.9269 -41.4239 46° Northeast 509 586 36,000  Level FlightAware Transoceanic
Fri 11:17:00 PM 37.0252 -41.2961 46° Northeast 509 586 36,000  Level FlightAware Transoceanic
Fri 11:18:00 PM 37.1233 -41.1680 46° Northeast 509 586 36,000  Level FlightAware Transoceanic
Fri 11:19:00 PM 37.2213 -41.0396 46° Northeast 509 586 36,000  Level FlightAware Transoceanic
Fri 11:20:00 PM 37.3191 -40.9108 46° Northeast 509 586 36,000  Level FlightAware Transoceanic
Fri 11:21:00 PM 37.4168 -40.7817 46° Northeast 509 586 36,000  Level FlightAware Transoceanic
Fri 11:22:00 PM 37.5301 -40.6305 46° Northeast 498 573 36,000  Level FlightAware Transoceanic
Fri 11:23:00 PM 37.6243 -40.5051 47° Northeast 498 573 36,000  Level FlightAware Transoceanic
Fri 11:24:00 PM 37.7184 -40.3793 47° Northeast 498 573 36,000  Level FlightAware Transoceanic
Fri 11:25:00 PM 37.8124 -40.2532 47° Northeast 498 573 36,000  Level FlightAware Transoceanic
Fri 11:26:00 PM 37.9063 -40.1268 47° Northeast 498 573 36,000  Level FlightAware Transoceanic
Fri 11:27:00 PM 38.0000 -40.0000 66° East 498 573 36,000  Level FlightAware Transoceanic
Fri 11:28:00 PM 38.0568 -39.8405 66° East 498 573 36,000  Level FlightAware Transoceanic
Fri 11:29:00 PM 38.1134 -39.6808 66° East 498 573 36,000  Level FlightAware Transoceanic
Fri 11:30:00 PM 38.1698 -39.5208 66° East 498 573 36,000  Level FlightAware Transoceanic
Fri 11:31:00 PM 38.2259 -39.3605 66° East 498 573 36,000  Level FlightAware Transoceanic
Fri 11:32:00 PM 38.2819 -39.2001 66° East 498 573 36,000  Level FlightAware Transoceanic
Fri 11:33:00 PM 38.3376 -39.0393 66° East 498 573 36,000  Level FlightAware Transoceanic
Fri 11:34:00 PM 38.3931 -38.8784 66° East 498 573 36,000  Level FlightAware Transoceanic
Fri 11:35:00 PM 38.4484 -38.7172 66° East 498 573 36,000  Level FlightAware Transoceanic
Fri 11:36:00 PM 38.5034 -38.5557 67° East 498 573 36,000  Level FlightAware Transoceanic
Fri 11:37:00 PM 38.5583 -38.3940 67° East 498 573 36,000  Level FlightAware Transoceanic
Fri 11:38:00 PM 38.6129 -38.2320 67° East 498 573 36,000  Level FlightAware Transoceanic
Fri 11:39:00 PM 38.6673 -38.0698 67° East 498 573 36,000  Level FlightAware Transoceanic
Fri 11:40:00 PM 38.7215 -37.9073 67° East 498 573 36,000  Level FlightAware Transoceanic
Fri 11:41:00 PM 38.7754 -37.7447 67° East 498 573 36,000  Level FlightAware Transoceanic
Fri 11:42:00 PM 38.8291 -37.5817 67° East 498 573 36,000  Level FlightAware Transoceanic
Fri 11:43:00 PM 38.8826 -37.4185 67° East 498 573 36,000  Level FlightAware Transoceanic
Fri 11:44:00 PM 38.9358 -37.2551 67° East 498 573 36,000  Level FlightAware Transoceanic
Fri 11:45:00 PM 38.9889 -37.0914 67° East 498 573 36,000  Level FlightAware Transoceanic
Fri 11:46:00 PM 39.0417 -36.9275 68° East 498 573 36,000  Level FlightAware Transoceanic
Fri 11:47:00 PM 39.0943 -36.7633 68° East 498 573 36,000  Level FlightAware Transoceanic
Fri 11:48:00 PM 39.1466 -36.5989 68° East 498 573 36,000  Level FlightAware Transoceanic
Fri 11:49:00 PM 39.1987 -36.4342 68° East 498 573 36,000  Level FlightAware Transoceanic
Fri 11:50:00 PM 39.2506 -36.2693 68° East 498 573 36,000  Level FlightAware Transoceanic
Fri 11:51:00 PM 39.3022 -36.1042 68° East 498 573 36,000  Level FlightAware Transoceanic
Fri 11:52:00 PM 39.3537 -35.9388 68° East 498 573 36,000  Level FlightAware Transoceanic
Fri 11:53:00 PM 39.4049 -35.7732 68° East 498 573 36,000  Level FlightAware Transoceanic
Fri 11:54:00 PM 39.4558 -35.6073 68° East 498 573 36,000  Level FlightAware Transoceanic
Fri 11:55:00 PM 39.5065 -35.4412 68° East 498 573 36,000  Level FlightAware Transoceanic
Fri 11:56:00 PM 39.5570 -35.2748 69° East 498 573 36,000  Level FlightAware Transoceanic
Fri 11:57:00 PM 39.6072 -35.1082 69° East 498 573 36,000  Level FlightAware Transoceanic
Fri 11:58:00 PM 39.6572 -34.9414 69° East 498 573 36,000  Level FlightAware Transoceanic
Fri 11:59:00 PM 39.7070 -34.7743 69° East 498 573 36,000  Level FlightAware Transoceanic
Sat 12:00:00 AM 39.7565 -34.6069 69° East 498 573 36,000  Level FlightAware Transoceanic
Sat 12:01:00 AM 39.8058 -34.4394 69° East 498 573 36,000  Level FlightAware Transoceanic
Sat 12:02:00 AM 39.8548 -34.2716 69° East 498 573 36,000  Level FlightAware Transoceanic
Sat 12:03:00 AM 39.9036 -34.1035 69° East 498 573 36,000  Level FlightAware Transoceanic
Sat 12:04:00 AM 39.9521 -33.9353 69° East 498 573 36,000  Level FlightAware Transoceanic
Sat 12:05:00 AM 40.0004 -33.7667 70° East 498 573 36,000  Level FlightAware Transoceanic
Sat 12:06:00 AM 40.0485 -33.5980 70° East 498 573 36,000  Level FlightAware Transoceanic
Sat 12:07:00 AM 40.0963 -33.4290 70° East 498 573 36,000  Level FlightAware Transoceanic
Sat 12:08:00 AM 40.1439 -33.2598 70° East 498 573 36,000  Level FlightAware Transoceanic
Sat 12:09:00 AM 40.1912 -33.0903 70° East 498 573 36,000  Level FlightAware Transoceanic
Sat 12:10:00 AM 40.2383 -32.9206 70° East 498 573 36,000  Level FlightAware Transoceanic
Sat 12:11:00 AM 40.2851 -32.7506 70° East 498 573 36,000  Level FlightAware Transoceanic
Sat 12:12:00 AM 40.3317 -32.5804 70° East 498 573 36,000  Level FlightAware Transoceanic
Sat 12:13:00 AM 40.3780 -32.4100 70° East 498 573 36,000  Level FlightAware Transoceanic
Sat 12:14:00 AM 40.4241 -32.2394 71° East 498 573 36,000  Level FlightAware Transoceanic
Sat 12:15:00 AM 40.4699 -32.0685 71° East 498 573 36,000  Level FlightAware Transoceanic
Sat 12:16:00 AM 40.5155 -31.8974 71° East 498 573 36,000  Level FlightAware Transoceanic
Sat 12:17:00 AM 40.5608 -31.7261 71° East 498 573 36,000  Level FlightAware Transoceanic
Sat 12:18:00 AM 40.6059 -31.5545 71° East 498 573 36,000  Level FlightAware Transoceanic
Sat 12:19:00 AM 40.6507 -31.3827 71° East 498 573 36,000  Level FlightAware Transoceanic
Sat 12:20:00 AM 40.6953 -31.2106 71° East 498 573 36,000  Level FlightAware Transoceanic
Sat 12:21:00 AM 40.7396 -31.0384 71° East 498 573 36,000  Level FlightAware Transoceanic
Sat 12:22:00 AM 40.7836 -30.8659 71° East 498 573 36,000  Level FlightAware Transoceanic
Sat 12:23:00 AM 40.8274 -30.6932 72° East 498 573 36,000  Level FlightAware Transoceanic
Sat 12:24:00 AM 40.8709 -30.5202 72° East 498 573 36,000  Level FlightAware Transoceanic
Sat 12:25:00 AM 40.9142 -30.3470 72° East 498 573 36,000  Level FlightAware Transoceanic
Sat 12:26:00 AM 40.9572 -30.1736 72° East 498 573 36,000  Level FlightAware Transoceanic
Sat 12:27:00 AM 41.0269 -30.0119 60° Northeast  Level Estimated
Sat 12:28:00 AM 41.0964 -29.8499 60° Northeast  Level Estimated
Sat 12:29:00 AM 41.1656 -29.6875 60° Northeast  Level Estimated
Sat 12:30:00 AM 41.2347 -29.5248 61° Northeast  Level Estimated
Sat 12:31:00 AM 41.3034 -29.3617 61° Northeast  Level Estimated
Sat 12:32:00 AM 41.3720 -29.1983 61° Northeast  Level Estimated
Sat 12:32:58 AM 41.0100 -28.8610 61° Northeast 502 578 36,000  Level FlightAware ADS-B
Sat 12:33:00 AM 41.4403 -29.0345 61° Northeast  Level Estimated
Sat 12:33:43 AM 41.0150 -28.7250 87° East 502 578 36,000  Level FlightAware ADS-B
Sat 12:34:23 AM 41.0190 -28.5890 88° East 501 577 36,000  Level FlightAware ADS-B
Sat 12:35:08 AM 41.0240 -28.4530 87° East 501 577 36,000  Level FlightAware ADS-B
Sat 12:35:43 AM 41.0270 -28.3420 88° East 497 572 36,000  Level FlightAware ADS-B
Sat 12:36:38 AM 41.0320 -28.1840 88° East 495 570 36,000 171 Level FlightAware ADS-B
Sat 12:37:28 AM 41.0350 -28.0400 88° East 490 564 36,300 267 Climbing FlightAware ADS-B
Sat 12:38:08 AM 41.0380 -27.9140 88° East 490 564 36,400 75 Climbing FlightAware ADS-B
Sat 12:38:48 AM 41.0410 -27.8120 88° East 490 564 36,400  Level FlightAware ADS-B
Sat 12:39:28 AM 41.0440 -27.7100 88° East 490 564 36,400 424 Level FlightAware ADS-B
Sat 12:40:13 AM 41.0470 -27.5300 89° East 499 574 37,000 360 Climbing FlightAware ADS-B
Sat 12:41:08 AM 41.0510 -27.3600 88° East 496 571 37,000  Level FlightAware ADS-B
Sat 12:42:08 AM 41.0540 -27.1890 89° East 496 571 37,000  Level FlightAware ADS-B
Sat 12:42:48 AM 41.0570 -27.0540 88° East 499 574 37,000  Level FlightAware ADS-B
Sat 12:43:43 AM 41.0600 -26.8950 89° East 499 574 37,000  Level FlightAware ADS-B
Sat 12:44:43 AM 41.0620 -26.7070 89° East 495 570 37,000  Level FlightAware ADS-B
Sat 12:45:33 AM 41.0640 -26.5680 89° East 493 567 37,000  Level FlightAware ADS-B
Sat 12:46:13 AM 41.0660 -26.4390 89° East 491 565 37,000  Level FlightAware ADS-B
Sat 12:46:58 AM 41.0690 -26.3260 88° East 491 565 37,000  Level FlightAware ADS-B
Sat 12:47:43 AM 41.0690 -26.1830 90° East 491 565 37,000  Level FlightAware ADS-B
Sat 12:48:28 AM 41.0700 -26.0400 89° East 490 564 37,000  Level FlightAware ADS-B
Sat 12:49:08 AM 41.0710 -25.9210 89° East 490 564 37,000  Level FlightAware ADS-B
Sat 12:49:38 AM 41.0720 -25.8400 89° East 490 564 37,000  Level FlightAware ADS-B
Sat 12:50:33 AM 41.0730 -25.6600 90° East 490 564 37,000  Level FlightAware ADS-B
Sat 12:51:13 AM 41.0740 -25.5370 89° East 488 562 37,000  Level FlightAware ADS-B
Sat 12:51:58 AM 41.0740 -25.4040 90° East 487 560 37,000  Level FlightAware ADS-B
Sat 12:52:53 AM 41.0750 -25.2390 89° East 488 562 37,000  Level FlightAware ADS-B
Sat 12:53:28 AM 41.0760 -25.1600 89° East 488 562 37,000  Level FlightAware ADS-B
Sat 12:54:28 AM 41.0750 -24.9960 90° East 489 563 37,000  Level FlightAware ADS-B
Sat 12:55:03 AM 41.0750 -24.8510 90° East 488 562 37,000  Level FlightAware ADS-B
Sat 12:56:03 AM 41.0740 -24.6740 90° East 486 559 37,000  Level FlightAware ADS-B
Sat 12:56:38 AM 41.0740 -24.5860 90° East 485 558 37,000  Level FlightAware ADS-B
Sat 12:57:38 AM 41.0730 -24.3730 90° East 483 556 37,000  Level FlightAware ADS-B
Sat 12:58:18 AM 41.0720 -24.2780 91° East 485 558 37,000  Level FlightAware ADS-B
Sat 12:59:08 AM 41.0720 -24.1450 90° East 488 562 37,000  Level FlightAware ADS-B
Sat 12:59:43 AM 41.0710 -24.0370 91° East 489 563 37,000  Level FlightAware ADS-B
Sat 01:00:48 AM 41.0690 -23.8320 91° East 488 562 37,000  Level FlightAware ADS-B
Sat 01:01:28 AM 41.0680 -23.7100 91° East 488 562 37,000  Level FlightAware ADS-B
Sat 01:02:23 AM 41.0660 -23.5470 91° East 489 563 37,000  Level FlightAware ADS-B
Sat 01:03:08 AM 41.0640 -23.4030 91° East 488 562 37,000  Level FlightAware ADS-B
Sat 01:03:58 AM 41.0620 -23.2690 91° East 488 562 37,000  Level FlightAware ADS-B
Sat 01:04:48 AM 41.0600 -23.1380 91° East 489 563 37,000  Level FlightAware ADS-B
Sat 01:05:43 AM 41.0570 -22.9590 91° East 490 564 37,000  Level FlightAware ADS-B
Sat 01:06:18 AM 41.0550 -22.8510 91° East 491 565 37,000  Level FlightAware ADS-B
Sat 01:07:03 AM 41.0520 -22.6870 91° East 493 567 37,000  Level FlightAware ADS-B
Sat 01:07:48 AM 41.0490 -22.5650 92° East 493 567 37,000  Level FlightAware ADS-B
Sat 01:08:43 AM 41.0470 -22.4200 91° East 493 567 37,000  Level FlightAware ADS-B
Sat 01:09:23 AM 41.0450 -22.3170 91° East 493 567 37,000  Level FlightAware ADS-B
Sat 01:10:03 AM 41.0440 -22.2140 91° East 493 567 37,000  Level FlightAware ADS-B
Sat 01:10:48 AM 41.0370 -22.0490 93° East 490 564 37,000  Level FlightAware ADS-B
Sat 01:11:28 AM 41.0340 -21.9370 92° East 490 564 37,000  Level FlightAware ADS-B
Sat 01:12:28 AM 41.0290 -21.7380 92° East 484 557 37,000  Level FlightAware ADS-B
Sat 01:13:23 AM 41.0240 -21.5780 92° East 482 555 37,000  Level FlightAware ADS-B
Sat 01:14:03 AM 41.0220 -21.4770 91° East 482 555 37,000 15 Level FlightAware ADS-B
Sat 01:14:48 AM 41.0160 -21.3260 93° East 37,000 15 Level FlightAware ADS-B
Sat 01:17:00 AM 41.1829 -20.9806 57° Northeast  Level Estimated
Sat 01:18:00 AM 41.2584 -20.8230 57° Northeast  Level Estimated
Sat 01:19:00 AM 41.3337 -20.6650 58° Northeast  Level Estimated
Sat 01:20:00 AM 41.4087 -20.5067 58° Northeast  Level Estimated
Sat 01:21:00 AM 41.4836 -20.3480 58° Northeast  Level Estimated
Sat 01:22:00 AM 41.5583 -20.1889 58° Northeast  Level Estimated
Sat 01:23:00 AM 41.6327 -20.0295 58° Northeast  Level Estimated
Sat 01:24:00 AM 41.7069 -19.8697 58° Northeast  Level Estimated
Sat 01:25:00 AM 41.7808 -19.7095 58° Northeast  Level Estimated
Sat 01:26:00 AM 41.8546 -19.5490 58° Northeast  Level Estimated
Sat 01:27:00 AM 41.9281 -19.3881 58° Northeast  Level Estimated
Sat 01:28:00 AM 42.0014 -19.2268 59° Northeast  Level Estimated
Sat 01:29:00 AM 42.0745 -19.0652 59° Northeast  Level Estimated
Sat 01:30:00 AM 42.1474 -18.9031 59° Northeast  Level Estimated
Sat 01:31:00 AM 42.2200 -18.7407 59° Northeast  Level Estimated
Sat 01:32:00 AM 42.2924 -18.5780 59° Northeast  Level Estimated
Sat 01:33:00 AM 42.3645 -18.4148 59° Northeast  Level Estimated
Sat 01:34:00 AM 42.4365 -18.2513 59° Northeast  Level Estimated
Sat 01:35:00 AM 42.5082 -18.0874 59° Northeast  Level Estimated
Sat 01:36:00 AM 42.5796 -17.9232 59° Northeast  Level Estimated
Sat 01:37:00 AM 42.6508 -17.7585 59° Northeast  Level Estimated
Sat 01:38:00 AM 42.7218 -17.5935 60° Northeast  Level Estimated
Sat 01:39:00 AM 42.7926 -17.4281 60° Northeast  Level Estimated
Sat 01:40:00 AM 42.8631 -17.2624 60° Northeast  Level Estimated
Sat 01:41:00 AM 42.9334 -17.0962 60° Northeast  Level Estimated
Sat 01:42:00 AM 43.0034 -16.9297 60° Northeast  Level Estimated
Sat 01:43:00 AM 43.0732 -16.7628 60° Northeast  Level Estimated
Sat 01:44:00 AM 43.1428 -16.5955 60° Northeast  Level Estimated
Sat 01:45:00 AM 43.2121 -16.4278 60° Northeast  Level Estimated
Sat 01:46:00 AM 43.2811 -16.2598 61° Northeast  Level Estimated
Sat 01:47:00 AM 43.3499 -16.0913 61° Northeast  Level Estimated
Sat 01:48:00 AM 43.4185 -15.9225 61° Northeast  Level Estimated
Sat 01:49:00 AM 43.4868 -15.7533 61° Northeast  Level Estimated
Sat 01:50:00 AM 43.5549 -15.5837 61° Northeast  Level Estimated
Sat 01:51:00 AM 43.6227 -15.4138 61° Northeast  Level Estimated
Sat 01:52:00 AM 43.6903 -15.2434 61° Northeast  Level Estimated
Sat 01:53:00 AM 43.7576 -15.0727 61° Northeast  Level Estimated
Sat 01:54:00 AM 43.8247 -14.9016 61° Northeast  Level Estimated
Sat 01:55:00 AM 43.8915 -14.7301 62° Northeast  Level Estimated
Sat 01:56:00 AM 43.9580 -14.5582 62° Northeast  Level Estimated
Sat 01:57:00 AM 44.0243 -14.3859 62° Northeast  Level Estimated
Sat 01:58:00 AM 44.0903 -14.2133 62° Northeast  Level Estimated
Sat 01:59:00 AM 44.1561 -14.0402 62° Northeast  Level Estimated
Sat 02:00:00 AM 44.2216 -13.8668 62° Northeast  Level Estimated
Sat 02:01:00 AM 44.2868 -13.6930 62° Northeast  Level Estimated
Sat 02:02:00 AM 44.3518 -13.5188 62° Northeast  Level Estimated
Sat 02:03:00 AM 44.4165 -13.3442 63° Northeast  Level Estimated
Sat 02:04:00 AM 44.4809 -13.1693 63° Northeast  Level Estimated
Sat 02:05:00 AM 44.5451 -12.9939 63° Northeast  Level Estimated
Sat 02:06:00 AM 44.6090 -12.8182 63° Northeast  Level Estimated
Sat 02:07:00 AM 44.6727 -12.6421 63° Northeast  Level Estimated
Sat 02:08:00 AM 44.7360 -12.4656 63° Northeast  Level Estimated
Sat 02:09:00 AM 44.7991 -12.2887 63° Northeast  Level Estimated
Sat 02:10:00 AM 44.8619 -12.1114 63° Northeast  Level Estimated
Sat 02:11:00 AM 44.9245 -11.9337 64° Northeast  Level Estimated
Sat 02:12:00 AM 44.9868 -11.7556 64° Northeast  Level Estimated
Sat 02:13:00 AM 45.0488 -11.5772 64° Northeast  Level Estimated
Sat 02:14:00 AM 45.1105 -11.3984 64° Northeast  Level Estimated
Sat 02:15:00 AM 45.1719 -11.2192 64° Northeast  Level Estimated
Sat 02:16:00 AM 45.2331 -11.0396 64° Northeast  Level Estimated
Sat 02:17:00 AM 45.2939 -10.8596 64° Northeast  Level Estimated
Sat 02:18:00 AM 45.3545 -10.6792 64° Northeast  Level Estimated
Sat 02:19:00 AM 45.4148 -10.4985 65° Northeast  Level Estimated
Sat 02:20:00 AM 45.4748 -10.3173 65° Northeast  Level Estimated
Sat 02:21:00 AM 45.5346 -10.1358 65° Northeast  Level Estimated
Sat 02:22:00 AM 45.5940 -9.9539 65° Northeast  Level Estimated
Sat 02:22:03 AM 42.6310 -9.5530 65° Northeast 466 536 38,000  Level FlightAware ADS-B
Sat 02:22:38 AM 42.6600 -9.4470 70° East 463 533 38,000  Level FlightAware ADS-B
Sat 02:23:23 AM 42.6920 -9.3250 70° East 464 534 38,000  Level FlightAware ADS-B
Sat 02:24:03 AM 42.7230 -9.2070 70° East 465 535 38,000  Level FlightAware ADS-B
Sat 02:24:48 AM 42.7530 -9.0940 70° East 466 536 38,000  Level FlightAware ADS-B
Sat 02:25:33 AM 42.7870 -8.9640 70° East 467 537 38,000  Level FlightAware ADS-B
Sat 02:26:08 AM 42.8090 -8.8820 70° East 467 537 38,000  Level FlightAware ADS-B
Sat 02:26:53 AM 42.8440 -8.7460 71° East 468 539 38,000  Level FlightAware ADS-B
Sat 02:27:38 AM 42.8770 -8.6180 71° East 470 541 38,000  Level FlightAware ADS-B
Sat 02:28:13 AM 42.9050 -8.5170 69° East 471 542 38,000  Level FlightAware ADS-B
Sat 02:28:58 AM 42.9540 -8.4000 60° Northeast 468 539 38,000  Level FlightAware ADS-B
Sat 02:29:58 AM 43.0380 -8.2670 49° Northeast 463 533 38,000  Level FlightAware ADS-B
Sat 02:30:38 AM 43.0910 -8.1890 47° Northeast 463 533 38,000  Level FlightAware ADS-B
Sat 02:31:18 AM 43.1500 -8.1050 46° Northeast 462 532 38,000  Level FlightAware ADS-B
Sat 02:31:58 AM 43.2090 -8.0190 47° Northeast 464 534 38,000  Level FlightAware ADS-B
Sat 02:32:48 AM 43.2850 -7.9090 46° Northeast 466 536 38,000  Level FlightAware ADS-B
Sat 02:33:28 AM 43.3370 -7.8330 47° Northeast 466 536 38,000  Level FlightAware ADS-B
Sat 02:34:08 AM 43.4120 -7.7240 47° Northeast 466 536 38,000  Level FlightAware ADS-B
Sat 02:34:53 AM 43.4780 -7.6260 47° Northeast 465 535 38,000  Level FlightAware ADS-B
Sat 02:35:33 AM 43.5330 -7.5470 46° Northeast 465 535 38,000  Level FlightAware ADS-B
Sat 02:36:18 AM 43.6020 -7.4440 47° Northeast 466 536 38,000  Level FlightAware ADS-B
Sat 02:36:53 AM 43.6500 -7.3730 47° Northeast 466 536 38,000  Level FlightAware ADS-B
Sat 02:37:48 AM 43.7310 -7.2530 47° Northeast 467 537 38,000  Level FlightAware ADS-B
Sat 02:38:48 AM 43.8160 -7.1270 47° Northeast 467 537 38,000  Level FlightAware ADS-B
Sat 02:39:33 AM 43.8810 -7.0300 47° Northeast 467 537 38,000  Level FlightAware ADS-B
Sat 02:40:28 AM 43.9620 -6.9070 48° Northeast 468 539 38,000  Level FlightAware ADS-B
Sat 02:41:18 AM 44.0350 -6.7960 48° Northeast 468 539 38,000  Level FlightAware ADS-B
Sat 02:43:00 AM 44.1954 -6.5493 48° Northeast  Level FlightAware Approximate
Sat 02:43:58 AM 44.2720 -6.4360 48° Northeast 472 543 38,000  Level FlightAware ADS-B
Sat 02:44:00 AM 44.2895 -6.4036 48° Northeast  Level FlightAware Approximate
Sat 02:44:38 AM 44.3310 -6.3460 47° Northeast 472 543 38,000  Level FlightAware ADS-B
Sat 02:45:23 AM 44.3970 -6.2440 48° Northeast 471 542 38,000  Level FlightAware ADS-B
Sat 02:45:53 AM 44.4390 -6.1790 48° Northeast 471 542 38,000  Level FlightAware ADS-B
Sat 02:47:38 AM 44.5860 -5.9510 48° Northeast 469 540 38,000  Level FlightAware ADS-B
Sat 02:48:48 AM 44.6910 -5.7850 48° Northeast 468 539 38,000  Level FlightAware ADS-B
Sat 02:49:28 AM 44.7410 -5.7080 48° Northeast 468 539 38,000  Level FlightAware ADS-B
Sat 02:50:08 AM 44.7900 -5.6310 48° Northeast 468 539 38,000  Level FlightAware ADS-B
Sat 02:50:58 AM 44.8520 -5.5350 48° Northeast 468 539 38,000  Level FlightAware ADS-B
Sat 02:51:38 AM 44.9010 -5.4580 48° Northeast 468 539 38,000  Level FlightAware ADS-B
Sat 02:52:18 AM 44.9500 -5.3800 48° Northeast 468 539 38,000  Level FlightAware ADS-B
Sat 02:52:58 AM 44.9990 -5.3030 48° Northeast 468 539 38,000  Level FlightAware ADS-B
Sat 02:53:48 AM 45.0610 -5.2060 48° Northeast 468 539 38,000  Level FlightAware ADS-B
Sat 02:54:18 AM 45.0980 -5.1480 48° Northeast 468 539 38,000  Level FlightAware ADS-B
Sat 02:54:48 AM 45.1350 -5.0900 48° Northeast 468 539 38,000  Level FlightAware ADS-B
Sat 02:55:38 AM 45.1960 -4.9930 48° Northeast 468 539 38,000  Level FlightAware ADS-B
Sat 02:56:18 AM 45.2460 -4.9150 48° Northeast 468 539 38,000  Level FlightAware ADS-B
Sat 02:56:58 AM 45.2950 -4.8380 48° Northeast 468 539 38,000  Level FlightAware ADS-B
Sat 02:57:38 AM 45.3440 -4.7600 48° Northeast 468 539 38,000  Level FlightAware ADS-B
Sat 02:58:18 AM 45.3930 -4.6820 48° Northeast 468 539 38,000  Level FlightAware ADS-B
Sat 03:01:00 AM 45.6383 -4.2688 50° Northeast  Level FlightAware Approximate
Sat 03:01:02 AM 45.7310 -4.0830 50° Northeast 467 537 38,000  Level FlightAware ADS-B
Sat 03:01:42 AM 45.7800 -3.9990 50° Northeast 467 537 38,000  Level FlightAware ADS-B
Sat 03:02:22 AM 45.8410 -3.8960 50° Northeast 467 537 38,000  Level FlightAware ADS-B
Sat 03:03:07 AM 45.9010 -3.7970 49° Northeast 467 537 38,000  Level FlightAware ADS-B
Sat 03:04:02 AM 45.9810 -3.6580 50° Northeast 467 537 38,000  Level FlightAware ADS-B
Sat 03:04:47 AM 46.0420 -3.5520 50° Northeast 465 535 38,000  Level FlightAware ADS-B
Sat 03:05:27 AM 46.0970 -3.4580 50° Northeast 467 537 38,000  Level FlightAware ADS-B
Sat 03:06:07 AM 46.1520 -3.3630 50° Northeast 470 541 38,000  Level FlightAware ADS-B
Sat 03:06:47 AM 46.2030 -3.2740 50° Northeast 470 541 38,000  Level FlightAware ADS-B
Sat 03:07:22 AM 46.2550 -3.1840 50° Northeast 474 545 38,000  Level FlightAware ADS-B
Sat 03:08:17 AM 46.3340 -3.0460 50° Northeast 476 548 38,000  Level FlightAware ADS-B
Sat 03:08:52 AM 46.3840 -2.9570 51° Northeast 476 548 38,000  Level FlightAware ADS-B
Sat 03:09:37 AM 46.4490 -2.8420 51° Northeast 476 548 38,000  Level FlightAware ADS-B
Sat 03:10:22 AM 46.5120 -2.7320 50° Northeast 474 545 38,000  Level FlightAware ADS-B
Sat 03:11:07 AM 46.5740 -2.6210 51° Northeast 474 545 38,000  Level FlightAware ADS-B
Sat 03:11:42 AM 46.6230 -2.5340 51° Northeast 474 545 38,000  Level FlightAware ADS-B
Sat 03:12:27 AM 46.6870 -2.4200 51° Northeast 474 545 38,000  Level FlightAware ADS-B
Sat 03:13:07 AM 46.7410 -2.3220 51° Northeast 474 545 38,000 -353 Level FlightAware ADS-B
Sat 03:13:52 AM 46.8030 -2.2100 51° Northeast 472 543 37,500 -847 Descending FlightAware ADS-B
Sat 03:14:32 AM 46.8570 -2.1140 51° Northeast 466 536 36,800 -975 Descending FlightAware ADS-B
Sat 03:15:12 AM 46.9090 -2.0180 52° Northeast 466 536 36,200 -565 Descending FlightAware ADS-B
Sat 03:15:57 AM 46.9720 -1.9040 51° Northeast 463 533 36,000 -141 Descending FlightAware ADS-B
Sat 03:16:37 AM 47.0270 -1.8040 51° Northeast 465 535 36,000  Level FlightAware ADS-B
Sat 03:17:22 AM 47.0860 -1.6950 51° Northeast 465 535 36,000  Level FlightAware ADS-B
Sat 03:18:02 AM 47.1380 -1.5980 52° Northeast 466 536 36,000 -150 Level FlightAware ADS-B
Sat 03:18:42 AM 47.1930 -1.4980 51° Northeast 465 535 35,800 -1,275 Descending FlightAware ADS-B
Sat 03:19:22 AM 47.2450 -1.3990 52° Northeast 463 533 34,300 -2,541 Descending FlightAware ADS-B
Sat 03:20:07 AM 47.3050 -1.2880 51° Northeast 462 532 32,200 -2,541 Descending FlightAware ADS-B
Sat 03:20:47 AM 47.3570 -1.1910 52° Northeast 455 524 30,700 -2,118 Descending FlightAware ADS-B
Sat 03:21:32 AM 47.4140 -1.0850 52° Northeast 445 512 29,200 -1,976 Descending FlightAware ADS-B
Sat 03:22:12 AM 47.4660 -0.9870 52° Northeast 436 502 27,900 -1,950 Descending FlightAware ADS-B
Sat 03:22:52 AM 47.5140 -0.8960 52° Northeast 427 491 26,600 -1,341 Descending FlightAware ADS-B
Sat 03:23:37 AM 47.5600 -0.7760 60° Northeast 448 516 26,000 -424 Descending FlightAware ADS-B
Sat 03:24:17 AM 47.5940 -0.6630 66° East 457 526 26,000  Level FlightAware ADS-B
Sat 03:25:02 AM 47.6330 -0.5370 65° Northeast 454 522 26,000  Level FlightAware ADS-B
Sat 03:25:42 AM 47.6660 -0.4260 66° East 453 521 26,000  Level FlightAware ADS-B
Sat 03:26:27 AM 47.7050 -0.2960 66° East 451 519 26,000  Level FlightAware ADS-B
Sat 03:27:07 AM 47.7380 -0.1850 66° East 452 520 26,000  Level FlightAware ADS-B
Sat 03:27:47 AM 47.7730 -0.0680 66° East 453 521 26,000  Level FlightAware ADS-B
Sat 03:28:32 AM 47.8080 0.0530 67° East 450 518 26,000 -282 Level FlightAware ADS-B
Sat 03:29:12 AM 47.8420 0.1690 66° East 450 518 25,600 -825 Descending FlightAware ADS-B
Sat 03:29:52 AM 47.8760 0.2850 66° East 445 512 24,900 -988 Descending FlightAware ADS-B
Sat 03:30:37 AM 47.9130 0.4100 66° East 441 507 24,200 -988 Descending FlightAware ADS-B
Sat 03:31:17 AM 47.9430 0.5150 67° East 440 506 23,500 -1,482 Descending FlightAware ADS-B
Sat 03:32:02 AM 47.9800 0.6440 67° East 429 494 22,100 -1,906 Descending FlightAware ADS-B
Sat 03:32:42 AM 48.0110 0.7520 67° East 419 482 20,800 -1,976 Descending FlightAware ADS-B
Sat 03:33:27 AM 48.0450 0.8720 67° East 413 475 19,300 -1,976 Descending FlightAware ADS-B
Sat 03:34:07 AM 48.0740 0.9710 66° East 408 470 18,000 -1,950 Descending FlightAware ADS-B
Sat 03:34:47 AM 48.1030 1.0750 67° East 400 460 16,700 -1,976 Descending FlightAware ADS-B
Sat 03:35:32 AM 48.1350 1.1900 67° East 393 452 15,200 -1,906 Descending FlightAware ADS-B
Sat 03:36:12 AM 48.1670 1.2850 63° Northeast 384 442 14,000 -1,425 Descending FlightAware ADS-B
Sat 03:36:52 AM 48.2150 1.3600 46° Northeast 376 433 13,300 -1,059 Descending FlightAware ADS-B
Sat 03:37:37 AM 48.2690 1.4460 47° Northeast 372 428 12,500 -988 Descending FlightAware ADS-B
Sat 03:38:17 AM 48.3160 1.5190 46° Northeast 368 423 11,900 -847 Descending FlightAware ADS-B
Sat 03:39:02 AM 48.3700 1.6050 47° Northeast 364 419 11,300 -600 Descending FlightAware ADS-B
Sat 03:39:47 AM 48.4210 1.6850 46° Northeast 362 417 11,000 -202 Descending FlightAware ADS-B
Sat 03:40:31 AM 48.4747 1.7697 46° Northeast 364 419 11,000  Level FlightAware ADS-B
Sat 03:41:06 AM 48.5136 1.8317 47° Northeast 364 419 11,000  Level FlightAware ADS-B
Sat 03:41:35 AM 48.5447 1.8905 51° Northeast 365 420 11,000  Level FlightAware ADS-B
Sat 03:41:40 AM 48.5475 1.9032 71° East 366 421 11,000  Level FlightAware ADS-B
Sat 03:41:52 AM 48.5509 1.9340 81° East 371 427 11,000  Level FlightAware ADS-B
Sat 03:42:06 AM 48.5526 1.9708 86° East 373 429 11,000  Level FlightAware ADS-B
Sat 03:42:35 AM 48.5565 2.0456 85° East 372 428 11,000  Level FlightAware ADS-B
Sat 03:43:05 AM 48.5614 2.1209 84° East 371 427 11,000  Level FlightAware ADS-B
Sat 03:43:39 AM 48.5655 2.1833 84° East 371 427 11,000  Level FlightAware ADS-B
Sat 03:44:09 AM 48.5720 2.2834 84° East 344 396 11,000  Level FlightAware ADS-B
Sat 03:44:39 AM 48.5765 2.3523 84° East 316 364 11,000  Level FlightAware ADS-B
Sat 03:45:01 AM 48.5784 2.3814 84° East 305 351 11,000 -621 Level FlightAware ADS-B
Sat 03:45:08 AM 48.5827 2.4100 77° East 298 343 10,700 -2,625 Descending FlightAware ADS-B
Sat 03:45:33 AM 48.5959 2.4585 68° East 296 341 9,600 -2,550 Descending FlightAware ADS-B
Sat 03:45:48 AM 48.6044 2.4884 67° East 288 331 9,000 -2,516 Descending FlightAware ADS-B
Sat 03:46:04 AM 48.6124 2.5162 66° East 287 330 8,300 -2,516 Descending FlightAware ADS-B
Sat 03:46:19 AM 48.6201 2.5441 67° East 285 328 7,700 -2,323 Descending FlightAware ADS-B
Sat 03:46:35 AM 48.6284 2.5741 67° East 279 321 7,100 -2,333 Descending FlightAware ADS-B
Sat 03:46:55 AM 48.6380 2.6087 67° East 277 319 6,300 -2,595 Descending FlightAware ADS-B
Sat 03:47:12 AM 48.6465 2.6390 67° East 277 319 5,500 -2,625 Descending FlightAware ADS-B
Sat 03:47:27 AM 48.6542 2.6669 67° East 274 315 4,900 -2,129 Descending FlightAware ADS-B
Sat 03:47:43 AM 48.6618 2.6941 67° East 274 315 4,400 -1,200 Descending FlightAware ADS-B
Sat 03:47:57 AM 48.6684 2.7171 66° East 268 308 4,300 -571 Descending FlightAware ADS-B
Sat 03:48:04 AM 48.6720 2.7292 66° East 265 305 4,200 -545 Descending FlightAware ADS-B
Sat 03:48:08 AM 48.6746 2.7364 61° Northeast 263 303 4,200 -429 Level FlightAware ADS-B
Sat 03:48:18 AM 48.6793 2.7451 51° Northeast 259 298 4,100 -429 Descending FlightAware ADS-B
Sat 03:48:22 AM 48.6857 2.7529 39° Northeast 251 289 4,100 -750 Level FlightAware ADS-B
Sat 03:48:26 AM 48.6899 2.7561 27° Northeast 246 283 4,000 -600 Descending FlightAware ADS-B
Sat 03:48:32 AM 48.6965 2.7590 16° North 240 276 4,000 -429 Level FlightAware ADS-B
Sat 03:48:40 AM 48.6999 2.7597 North 237 273 3,900 -1,000 Descending FlightAware ADS-B
Sat 03:48:44 AM 48.7090 2.7594 359° North 231 266 3,800 -105 Descending FlightAware ADS-B
Sat 03:49:37 AM 48.7202 2.7576 354° North 229 264 3,800  Level FlightAware ADS-B
Sat 03:49:44 AM 48.7637 2.7254 334° Northwest 204 235 3,800  Level FlightAware ADS-B
Sat 03:50:01 AM 48.7713 2.7062 301° West 189 217 3,800  Level FlightAware ADS-B
Sat 03:50:09 AM 48.7747 2.6968 299° West 182 209 3,800  Level FlightAware ADS-B
Sat 03:50:12 AM 48.7755 2.6929 287° West 180 207 3,800  Level FlightAware ADS-B
Sat 03:50:16 AM 48.7760 2.6878 279° West 179 206 3,800  Level FlightAware ADS-B
Sat 03:50:20 AM 48.7762 2.6840 274° West 177 204 3,800  Level FlightAware ADS-B
Sat 03:50:23 AM 48.7761 2.6803 268° West 176 203 3,800  Level FlightAware ADS-B
Sat 03:50:26 AM 48.7759 2.6761 266° West 177 204 3,800  Level FlightAware ADS-B
Sat 03:50:30 AM 48.7755 2.6707 264° West 180 207 3,800  Level FlightAware ADS-B
Sat 03:50:34 AM 48.7749 2.6660 259° West 181 208 3,800 -857 Level FlightAware ADS-B
Sat 03:50:37 AM 48.7743 2.6616 258° West 180 207 3,700 -1,200 Descending FlightAware ADS-B
Sat 03:50:49 AM 48.7721 2.6472 257° West 179 206 3,500 -1,071 Descending FlightAware ADS-B
Sat 03:51:05 AM 48.7688 2.6286 255° West 180 207 3,200 -1,000 Descending FlightAware ADS-B
Sat 03:51:13 AM 48.7669 2.6180 255° West 180 207 3,100 -1,000 Descending FlightAware ADS-B
Sat 03:51:29 AM 48.7636 2.5999 255° West 180 207 2,800 -1,034 Descending FlightAware ADS-B
Sat 03:51:42 AM 48.7606 2.5830 255° West 179 206 2,600 -818 Descending FlightAware ADS-B
Sat 03:51:51 AM 48.7586 2.5719 255° West 179 206 2,500 -1,000 Descending FlightAware ADS-B
Sat 03:52:06 AM 48.7553 2.5540 254° West 177 204 2,200 -1,200 Descending FlightAware ADS-B
Sat 03:52:16 AM 48.7532 2.5425 255° West 174 200 2,000 -923 Descending FlightAware ADS-B
Sat 03:52:32 AM 48.7498 2.5243 254° West 167 192 1,800 -774 Descending FlightAware ADS-B
Sat 03:52:47 AM 48.7468 2.5081 254° West 158 182 1,600 -828 Descending FlightAware ADS-B
Sat 03:53:01 AM 48.7442 2.4939 255° West 149 171 1,400 -828 Descending FlightAware ADS-B
Sat 03:53:16 AM 48.7416 2.4791 255° West 143 165 1,200 -774 Descending FlightAware ADS-B
Sat 03:53:32 AM 48.7390 2.4650 254° West 138 159 1,000 -750 Descending FlightAware ADS-B
Sat 03:53:40 AM 48.7377 2.4579 254° West 140 161 900 -923 Descending FlightAware ADS-B
Sat 03:53:45 AM 48.7365 2.4520 253° West 140 161 800 -649 Descending FlightAware ADS-B
Sat 03:54:17 AM 48.7320 2.4250 256° West 140 161 500 -677 Descending FlightAware ADS-B
Sat 03:54:47 AM 48.7270 2.3970 255° West 136 157 100 -800 Descending FlightAware ADS-B
Sat 03:55:12 AM 48.7230 2.3760 254° West 136 157 -240 Descending FlightAware ADS-B
Sat 03:57:00 AM 48.7167 2.3667 63° Northeast  Level FlightAware Approximate
Sat 03:58:00 AM 48.7253 2.3594 63° Northeast  Level Estimated
Sat 03:59:00 AM 48.7253 2.3594 63° Northeast  Level Estimated
Sat 04:00:00 AM 48.7253 2.3594 63° Northeast  Level Estimated
Sat 04:01:00 AM 48.7253 2.3594 63° Northeast  Level Estimated
Sat 04:02:00 AM 48.7253 2.3594 63° Northeast  Level Estimated
Sat 04:03:00 AM 48.7253 2.3594 63° Northeast  Level Estimated
Sat 04:04:00 AM 48.7253 2.3594 63° Northeast  Level Estimated
Sat 04:05:00 AM 48.7253 2.3594 63° Northeast  Level Estimated
Sat 04:06:00 AM 48.7253 2.3594 63° Northeast  Level Estimated
Sat 04:07:00 AM 48.7253 2.3594 63° Northeast  Level Estimated
Sat 04:08:00 AM 48.7253 2.3594 63° Northeast  Level Estimated
Sat 04:09:00 AM 48.7253 2.3594 63° Northeast  Level Estimated
Sat 04:10:00 AM 48.7253 2.3594 63° Northeast  Level Estimated
Sat 04:11:00 AM 48.7253 2.3594 63° Northeast  Level Estimated
Sat 04:12:00 AM 48.7253 2.3594 63° Northeast  Level Estimated
Sat 04:13:00 AM 48.7253 2.3594 63° Northeast  Level Estimated
Sat 04:14:00 AM 48.7253 2.3594 63° Northeast  Level Estimated
Sat 04:15:00 AM 48.7253 2.3594 63° Northeast  Level Estimated
Sat 04:16:00 AM 48.7253 2.3594 63° Northeast  Level Estimated
Sat 04:17:00 AM 48.7253 2.3594 63° Northeast  Level Estimated

Login

Don't have an account? Register now (free) for customized features, flight alerts, and more!